APL New Jersey — A8NM6 — position and weather

sailwx.info

Track history (hours):
 
Tides and Currents Weather Stations Pressure Air Temp Water Temp Dewpoint Dewpoint Depression Visibility Wind Speed Wind Dir Waves Ship Positions

APL New Jersey

Last reported at 2018-Jan-18 23:59 UTC. Time now 2018-Jan-19 00:04 UTC.
Position N 45°27' E 012°15'.

Length 293 m; draft 9.2 m.

Type: Ship (hazmat cat A). MMSI: 636013522.

Date/timePositionNaut miles runAvg speedWind from/ knotsBaromVisibWave heightAir tempDewpointWater temp
2018-Jan-18 23:59N 45°27' E 012°15'0 0.0
2018-Jan-18 23:29N 45°27' E 012°15'0 0.0
2018-Jan-18 22:59N 45°27' E 012°15'0 0.0
2018-Jan-18 22:29N 45°27' E 012°15'0 0.0
2018-Jan-18 21:59N 45°27' E 012°15'0 0.0
2018-Jan-18 21:29N 45°27' E 012°15'0 0.0
2018-Jan-18 20:59N 45°27' E 012°15'0 0.0
2018-Jan-18 20:29N 45°27' E 012°15'0 0.0
2018-Jan-18 19:59N 45°27' E 012°15'0 0.0
2018-Jan-18 19:29N 45°27' E 012°15'0 0.0
2018-Jan-18 18:59N 45°27' E 012°15'0 0.0
2018-Jan-18 18:29N 45°27' E 012°15'0 0.0
2018-Jan-18 17:59N 45°27' E 012°15'0 0.0
2018-Jan-18 17:29N 45°27' E 012°15'0 0.0
2018-Jan-18 16:59N 45°27' E 012°15'0 0.0
2018-Jan-18 16:29N 45°27' E 012°15'0 0.0
2018-Jan-18 15:59N 45°27' E 012°15'0 0.0
2018-Jan-18 15:29N 45°27' E 012°15'0 0.0
2018-Jan-18 14:59N 45°27' E 012°15'0 0.0
2018-Jan-18 14:29N 45°27' E 012°15'0 0.0
2018-Jan-18 13:59N 45°27' E 012°15'0 0.0
2018-Jan-18 13:29N 45°27' E 012°15'0 0.0
2018-Jan-18 12:59N 45°27' E 012°15'0 0.0
2018-Jan-18 12:29N 45°27' E 012°15'0 0.0
2018-Jan-18 11:59N 45°27' E 012°15'0 0.0
2018-Jan-18 11:29N 45°27' E 012°15'0 0.0
2018-Jan-18 10:56N 45°27' E 012°15'0 0.0
2018-Jan-18 10:29N 45°27' E 012°15'0 0.0
2018-Jan-18 09:59N 45°27' E 012°15'0 0.0
2018-Jan-18 09:26N 45°27' E 012°15'0 0.0
2018-Jan-18 08:59N 45°27' E 012°15'0 0.0
2018-Jan-18 08:29N 45°27' E 012°15'0 0.0
2018-Jan-18 07:59N 45°27' E 012°15'0 0.0
2018-Jan-18 07:29N 45°27' E 012°15'0 0.0
2018-Jan-18 06:59N 45°27' E 012°15'0 0.0
2018-Jan-18 06:29N 45°27' E 012°15'0 0.0
2018-Jan-18 05:56N 45°27' E 012°15'0 0.0
2018-Jan-18 05:29N 45°27' E 012°15'0 0.0
2018-Jan-18 04:59N 45°27' E 012°15'0 0.0
2018-Jan-18 04:29N 45°27' E 012°15'0 0.0
2018-Jan-18 03:59N 45°27' E 012°15'0 0.0
2018-Jan-18 03:29N 45°27' E 012°15'0 0.0
2018-Jan-18 02:59N 45°27' E 012°15'0 0.0
2018-Jan-18 02:29N 45°27' E 012°15'0 0.0
2018-Jan-18 01:59N 45°27' E 012°15'0 0.0
2018-Jan-18 01:29N 45°27' E 012°15'1 1.3
2018-Jan-18 01:00N 45°27' E 012°15'5 5.3
2018-Jan-18 00:00N 45°22' E 012°15'0 8.2
2018-Jan-17 23:57N 45°21' E 012°15'  
2018-Jan-12 10:43N 37°23' E 016°20'1220.1
2018-Jan-12 10:06N 37°13' E 016°11'10220.1
2018-Jan-12 05:00N 35°50' E 014°56'1019.2
2018-Jan-12 04:30N 35°49' E 014°45'816.1
2018-Jan-12 04:00N 35°48' E 014°35'2 2.1
2018-Jan-12 02:49N 35°49' E 014°32'0 0.0
2018-Jan-12 02:25N 35°49' E 014°32'0 0.0
2018-Jan-12 01:43N 35°49' E 014°32'0 0.0
2018-Jan-11 21:10N 35°49' E 014°32'0 0.0
2018-Jan-11 19:55N 35°49' E 014°32'0 0.0
2018-Jan-11 17:10N 35°49' E 014°32'0 0.0
2018-Jan-11 16:37N 35°49' E 014°32'0 0.0
2018-Jan-11 16:19N 35°49' E 014°32'0 0.0
2018-Jan-11 15:55N 35°49' E 014°32'0 0.0
2018-Jan-11 15:25N 35°49' E 014°32'0 0.0
2018-Jan-11 14:49N 35°49' E 014°32'0 0.0
2018-Jan-11 13:25N 35°49' E 014°32'0 0.0
2018-Jan-11 11:13N 35°49' E 014°32'0 0.0
2018-Jan-11 10:46N 35°49' E 014°32'0 0.0
2018-Jan-11 10:22N 35°49' E 014°32'0 0.2
2018-Jan-11 09:59N 35°49' E 014°32'2 4.0
2018-Jan-11 09:31N 35°48' E 014°34'1 2.9
2018-Jan-11 09:00N 35°47' E 014°35'0 0.7
2018-Jan-11 08:30N 35°48' E 014°35'0 0.6
2018-Jan-11 08:00N 35°48' E 014°35'0 0.2
2018-Jan-11 07:30N 35°48' E 014°35'2 4.7
2018-Jan-11 07:00N 35°46' E 014°35'1 1.0
2018-Jan-11 06:28N 35°46' E 014°35'1 1.5
2018-Jan-11 06:00N 35°47' E 014°35'1 2.0
2018-Jan-11 05:29N 35°48' E 014°35'1 2.7
2018-Jan-11 04:57N 35°48' E 014°37'0 0.5
2018-Jan-11 04:28N 35°48' E 014°37'1 2.6
2018-Jan-11 04:00N 35°48' E 014°38'3 6.5
2018-Jan-11 03:30N 35°50' E 014°42'3 5.8
2018-Jan-11 03:00N 35°50' E 014°46'0 0.3
2018-Jan-11 02:30N 35°50' E 014°46'0 0.1
2018-Jan-11 01:59N 35°50' E 014°46'0 0.0
2018-Jan-11 01:29N 35°50' E 014°46'0 0.1
2018-Jan-11 01:00N 35°50' E 014°46'0 0.1
2018-Jan-11 00:29N 35°50' E 014°46'0 0.0
2018-Jan-10 23:59N 35°50' E 014°46'0 0.0
2018-Jan-10 23:30N 35°50' E 014°46'0 0.1
2018-Jan-10 23:00N 35°50' E 014°46'0 0.1
2018-Jan-10 22:29N 35°50' E 014°46'0 0.1
2018-Jan-10 21:59N 35°50' E 014°46'0 0.1
2018-Jan-10 21:29N 35°50' E 014°46'0 0.1
2018-Jan-10 20:59N 35°50' E 014°46'0 0.0
2018-Jan-10 20:29N 35°50' E 014°46'0 0.1
2018-Jan-10 20:00N 35°50' E 014°46'0 0.1
2018-Jan-10 19:30N 35°50' E 014°46'0 0.1
2018-Jan-10 18:59N 35°50' E 014°46'0 0.0
2018-Jan-10 18:29N 35°50' E 014°46'0 0.1
2018-Jan-10 17:56N 35°50' E 014°46'0 0.1
2018-Jan-10 17:29N 35°50' E 014°46'0 0.0
2018-Jan-10 17:00N 35°50' E 014°46'0 0.1
2018-Jan-10 16:30N 35°50' E 014°46'0 0.0
2018-Jan-10 15:59N 35°50' E 014°46'0 0.1
2018-Jan-10 15:29N 35°50' E 014°46'0 0.0
2018-Jan-10 15:00N 35°50' E 014°46'0 0.1
2018-Jan-10 14:30N 35°50' E 014°46'0 0.1
2018-Jan-10 13:57N 35°50' E 014°46'0 0.1
2018-Jan-10 13:30N 35°50' E 014°46'0 0.0
2018-Jan-10 13:00N 35°50' E 014°46'0 0.3
2018-Jan-10 12:30N 35°50' E 014°46'3 6.4
2018-Jan-10 12:00N 35°49' E 014°49'21614.4
2018-Jan-09 21:04N 34°50' E 019°03'114.8
2018-Jan-09 21:00N 34°50' E 019°05'815.8
2018-Jan-09 20:30N 34°48' E 019°14'1215.9
2018-Jan-09 19:43N 34°45' E 019°29'315.9
2018-Jan-09 19:30N 34°44' E 019°33'915.8
2018-Jan-09 18:57N 34°42' E 019°43'  
Track history (hours):
 
Tides and Currents Weather Stations Pressure Air Temp Water Temp Dewpoint Dewpoint Depression Visibility Wind Speed Wind Dir Waves Ship Positions

APL New Jersey

Last reported at 2018-Jan-18 23:59 UTC. Time now 2018-Jan-19 00:04 UTC.
Position N 45°27' E 012°15'.

Length 293 m; draft 9.2 m.

Type: Ship (hazmat cat A). MMSI: 636013522.

Date/timePositionNaut miles runAvg speedWind from/ knotsBaromVisibWave heightAir tempDewpointWater temp
2018-Jan-18 23:59N 45°27' E 012°15'0 0.0
2018-Jan-18 23:29N 45°27' E 012°15'0 0.0
2018-Jan-18 22:59N 45°27' E 012°15'0 0.0
2018-Jan-18 22:29N 45°27' E 012°15'0 0.0
2018-Jan-18 21:59N 45°27' E 012°15'0 0.0
2018-Jan-18 21:29N 45°27' E 012°15'0 0.0
2018-Jan-18 20:59N 45°27' E 012°15'0 0.0
2018-Jan-18 20:29N 45°27' E 012°15'0 0.0
2018-Jan-18 19:59N 45°27' E 012°15'0 0.0
2018-Jan-18 19:29N 45°27' E 012°15'0 0.0
2018-Jan-18 18:59N 45°27' E 012°15'0 0.0
2018-Jan-18 18:29N 45°27' E 012°15'0 0.0
2018-Jan-18 17:59N 45°27' E 012°15'0 0.0
2018-Jan-18 17:29N 45°27' E 012°15'0 0.0
2018-Jan-18 16:59N 45°27' E 012°15'0 0.0
2018-Jan-18 16:29N 45°27' E 012°15'0 0.0
2018-Jan-18 15:59N 45°27' E 012°15'0 0.0
2018-Jan-18 15:29N 45°27' E 012°15'0 0.0
2018-Jan-18 14:59N 45°27' E 012°15'0 0.0
2018-Jan-18 14:29N 45°27' E 012°15'0 0.0
2018-Jan-18 13:59N 45°27' E 012°15'0 0.0
2018-Jan-18 13:29N 45°27' E 012°15'0 0.0
2018-Jan-18 12:59N 45°27' E 012°15'0 0.0
2018-Jan-18 12:29N 45°27' E 012°15'0 0.0
2018-Jan-18 11:59N 45°27' E 012°15'0 0.0
2018-Jan-18 11:29N 45°27' E 012°15'0 0.0
2018-Jan-18 10:56N 45°27' E 012°15'0 0.0
2018-Jan-18 10:29N 45°27' E 012°15'0 0.0
2018-Jan-18 09:59N 45°27' E 012°15'0 0.0
2018-Jan-18 09:26N 45°27' E 012°15'0 0.0
2018-Jan-18 08:59N 45°27' E 012°15'0 0.0
2018-Jan-18 08:29N 45°27' E 012°15'0 0.0
2018-Jan-18 07:59N 45°27' E 012°15'0 0.0
2018-Jan-18 07:29N 45°27' E 012°15'0 0.0
2018-Jan-18 06:59N 45°27' E 012°15'0 0.0
2018-Jan-18 06:29N 45°27' E 012°15'0 0.0
2018-Jan-18 05:56N 45°27' E 012°15'0 0.0
2018-Jan-18 05:29N 45°27' E 012°15'0 0.0
2018-Jan-18 04:59N 45°27' E 012°15'0 0.0
2018-Jan-18 04:29N 45°27' E 012°15'0 0.0
2018-Jan-18 03:59N 45°27' E 012°15'0 0.0
2018-Jan-18 03:29N 45°27' E 012°15'0 0.0
2018-Jan-18 02:59N 45°27' E 012°15'0 0.0
2018-Jan-18 02:29N 45°27' E 012°15'0 0.0
2018-Jan-18 01:59N 45°27' E 012°15'0 0.0
2018-Jan-18 01:29N 45°27' E 012°15'1 1.3
2018-Jan-18 01:00N 45°27' E 012°15'5 5.3
2018-Jan-18 00:00N 45°22' E 012°15'0 8.2
2018-Jan-17 23:57N 45°21' E 012°15'  
2018-Jan-12 10:43N 37°23' E 016°20'1220.1
2018-Jan-12 10:06N 37°13' E 016°11'10220.1
2018-Jan-12 05:00N 35°50' E 014°56'1019.2
2018-Jan-12 04:30N 35°49' E 014°45'816.1
2018-Jan-12 04:00N 35°48' E 014°35'2 2.1
2018-Jan-12 02:49N 35°49' E 014°32'0 0.0
2018-Jan-12 02:25N 35°49' E 014°32'0 0.0
2018-Jan-12 01:43N 35°49' E 014°32'0 0.0
2018-Jan-11 21:10N 35°49' E 014°32'0 0.0
2018-Jan-11 19:55N 35°49' E 014°32'0 0.0
2018-Jan-11 17:10N 35°49' E 014°32'0 0.0
2018-Jan-11 16:37N 35°49' E 014°32'0 0.0
2018-Jan-11 16:19N 35°49' E 014°32'0 0.0
2018-Jan-11 15:55N 35°49' E 014°32'0 0.0
2018-Jan-11 15:25N 35°49' E 014°32'0 0.0
2018-Jan-11 14:49N 35°49' E 014°32'0 0.0
2018-Jan-11 13:25N 35°49' E 014°32'0 0.0
2018-Jan-11 11:13N 35°49' E 014°32'0 0.0
2018-Jan-11 10:46N 35°49' E 014°32'0 0.0
2018-Jan-11 10:22N 35°49' E 014°32'0 0.2
2018-Jan-11 09:59N 35°49' E 014°32'2 4.0
2018-Jan-11 09:31N 35°48' E 014°34'1 2.9
2018-Jan-11 09:00N 35°47' E 014°35'0 0.7
2018-Jan-11 08:30N 35°48' E 014°35'0 0.6
2018-Jan-11 08:00N 35°48' E 014°35'0 0.2
2018-Jan-11 07:30N 35°48' E 014°35'2 4.7
2018-Jan-11 07:00N 35°46' E 014°35'1 1.0
2018-Jan-11 06:28N 35°46' E 014°35'1 1.5
2018-Jan-11 06:00N 35°47' E 014°35'1 2.0
2018-Jan-11 05:29N 35°48' E 014°35'1 2.7
2018-Jan-11 04:57N 35°48' E 014°37'0 0.5
2018-Jan-11 04:28N 35°48' E 014°37'1 2.6
2018-Jan-11 04:00N 35°48' E 014°38'3 6.5
2018-Jan-11 03:30N 35°50' E 014°42'3 5.8
2018-Jan-11 03:00N 35°50' E 014°46'0 0.3
2018-Jan-11 02:30N 35°50' E 014°46'0 0.1
2018-Jan-11 01:59N 35°50' E 014°46'0 0.0
2018-Jan-11 01:29N 35°50' E 014°46'0 0.1
2018-Jan-11 01:00N 35°50' E 014°46'0 0.1
2018-Jan-11 00:29N 35°50' E 014°46'0 0.0
2018-Jan-10 23:59N 35°50' E 014°46'0 0.0
2018-Jan-10 23:30N 35°50' E 014°46'0 0.1
2018-Jan-10 23:00N 35°50' E 014°46'0 0.1
2018-Jan-10 22:29N 35°50' E 014°46'0 0.1
2018-Jan-10 21:59N 35°50' E 014°46'0 0.1
2018-Jan-10 21:29N 35°50' E 014°46'0 0.1
2018-Jan-10 20:59N 35°50' E 014°46'0 0.0
2018-Jan-10 20:29N 35°50' E 014°46'0 0.1
2018-Jan-10 20:00N 35°50' E 014°46'0 0.1
2018-Jan-10 19:30N 35°50' E 014°46'0 0.1
2018-Jan-10 18:59N 35°50' E 014°46'0 0.0
2018-Jan-10 18:29N 35°50' E 014°46'0 0.1
2018-Jan-10 17:56N 35°50' E 014°46'0 0.1
2018-Jan-10 17:29N 35°50' E 014°46'0 0.0
2018-Jan-10 17:00N 35°50' E 014°46'0 0.1
2018-Jan-10 16:30N 35°50' E 014°46'0 0.0
2018-Jan-10 15:59N 35°50' E 014°46'0 0.1
2018-Jan-10 15:29N 35°50' E 014°46'0 0.0
2018-Jan-10 15:00N 35°50' E 014°46'0 0.1
2018-Jan-10 14:30N 35°50' E 014°46'0 0.1
2018-Jan-10 13:57N 35°50' E 014°46'0 0.1
2018-Jan-10 13:30N 35°50' E 014°46'0 0.0
2018-Jan-10 13:00N 35°50' E 014°46'0 0.3
2018-Jan-10 12:30N 35°50' E 014°46'3 6.4
2018-Jan-10 12:00N 35°49' E 014°49'21614.4
2018-Jan-09 21:04N 34°50' E 019°03'114.8
2018-Jan-09 21:00N 34°50' E 019°05'815.8
2018-Jan-09 20:30N 34°48' E 019°14'1215.9
2018-Jan-09 19:43N 34°45' E 019°29'315.9
2018-Jan-09 19:30N 34°44' E 019°33'915.8
2018-Jan-09 18:57N 34°42' E 019°43'  

Dump ship's entire track history